Latest Weather Observations for Low Isles

IDQ60801

Issued at 4:22 pm EST Sunday 15 September 2019 (issued every 10 minutes, with the page automatically refreshed every 10 minutes)

About weather observations | Map of weather stations | Latest weather observations for QLD | Other Formats
Station Details ID: 031037 Name: LOW ISLES LIGHTHOUSE Lat: -16.38 Lon: 145.56 Height: 2.9 m
Data from the previous 72 hours. | See also: Recent months at Low Isles
Date/Time
EST
Temp
°C
App
Temp
°C
Dew
Point
°C
Rel
Hum
%
Delta-T
°C
Wind Press
QNH
hPa
Press
MSL
hPa
Rain since
9am
mm
Dir  Spd
km/h
Gust
km/h
Spd
kts
Gust
kts
15/04:00pm 24.6 21.7 16.1 59 5.2 SE 26 33 14 18 1018.8 1018.8 0.0
15/03:30pm 26.2 23.4 16.4 54 6.0 SE 26 30 14 16 1018.7 1018.7 0.0
15/03:00pm 26.9 24.3 16.8 54 6.3 SE 26 30 14 16 1018.7 1018.7 0.0
15/02:30pm 26.5 23.8 17.6 58 5.6 SE 28 32 15 17 1018.8 1018.8 0.0
15/02:00pm 26.0 23.1 17.1 58 5.5 SE 28 32 15 17 1019.1 1019.1 0.0
15/01:30pm 27.8 25.1 16.7 50 6.9 ESE 26 33 14 18 1019.2 1019.2 0.0
15/01:00pm 26.9 24.5 16.5 53 6.4 SE 24 30 13 16 1019.8 1019.8 0.0
15/12:30pm 26.9 23.8 15.6 50 6.9 SE 26 30 14 16 1020.3 1020.3 0.0
15/12:00pm 27.6 25.4 15.9 49 7.2 ESE 22 28 12 15 1020.6 1020.6 0.0
15/11:30am 27.8 25.2 15.8 48 7.4 SE 24 28 13 15 1021.0 1021.0 0.0
15/11:00am 27.4 24.4 14.8 46 7.6 ESE 24 28 13 15 1021.3 1021.3 0.0
15/10:30am 27.1 24.6 15.1 47 7.3 ESE 22 26 12 14 1021.6 1021.6 0.0
15/10:00am 26.2 23.4 15.3 51 6.6 ESE 24 32 13 17 1021.8 1021.8 0.0
15/09:30am 25.5 22.2 14.0 49 6.8 E 24 32 13 17 1021.7 1021.7 0.0
15/09:00am 24.9 22.2 14.7 53 6.1 E 22 30 12 16 1021.6 1021.6 0.0
15/08:30am 24.3 21.9 16.3 61 4.9 ESE 24 33 13 18 1021.4 1021.4 0.0
15/08:00am 22.9 20.2 14.7 60 4.8 ESE 22 28 12 15 1021.2 1021.2 0.0
15/07:30am 22.8 19.2 14.1 58 5.1 ESE 26 33 14 18 1020.9 1020.9 0.0
15/07:00am 22.7 19.0 14.0 58 5.1 ESE 26 35 14 19 1020.5 1020.5 0.0
15/06:30am 22.5 18.5 14.1 59 4.9 ESE 28 33 15 18 1020.0 1020.0 0.0
15/06:00am 22.3 19.6 15.6 66 4.0 ESE 24 30 13 16 1019.5 1019.5 0.0
15/05:30am 22.5 19.4 14.4 60 4.8 ESE 24 30 13 16 1019.3 1019.3 0.0
15/05:00am 22.3 18.1 13.4 57 5.1 ESE 28 35 15 19 1019.1 1019.1 0.0
15/04:30am 22.2 18.3 14.3 61 4.6 ESE 28 32 15 17 1018.9 1018.9 0.0
15/04:00am 21.8 19.7 16.3 71 3.3 ESE 22 30 12 16 1018.8 1018.8 0.0
15/03:30am 21.8 19.9 16.7 73 3.1 SE 22 28 12 15 1018.7 1018.7 0.0
15/03:00am 21.5 19.5 17.3 77 2.6 SSE 24 26 13 14 1018.8 1018.8 0.0
15/02:30am 21.5 20.2 17.3 77 2.6 SSE 20 24 11 13 1019.0 1019.0 0.0
15/02:00am 21.5 20.2 17.3 77 2.6 SSE 20 24 11 13 1019.4 1019.4 0.0
15/01:30am 21.8 20.5 17.2 75 2.8 SSE 20 26 11 14 1019.6 1019.6 0.0
15/01:00am 21.8 20.1 17.2 75 2.8 SSE 22 26 12 14 1019.7 1019.7 0.0
15/12:30am 22.1 20.2 16.6 71 3.3 SE 22 28 12 15 1019.8 1019.8 0.0
15/12:00am 22.2 20.2 17.3 74 3.0 SE 24 30 13 16 1020.1 1020.1 0.0
 
Date/Time
EST
Temp
°C
App
Temp
°C
Dew
Point
°C
Rel
Hum
%
Delta-T
°C
Wind Press
QNH
hPa
Press
MSL
hPa
Rain since
9am
mm
Dir  Spd
km/h
Gust
km/h
Spd
kts
Gust
kts
14/11:30pm 21.9 18.7 16.2 70 3.4 SE 28 30 15 16 1020.3 1020.3 0.0
14/11:00pm 22.3 19.8 17.0 72 3.2 SE 26 30 14 16 1020.4 1020.4 0.0
14/10:30pm 22.4 19.2 16.4 69 3.6 SE 28 32 15 17 1020.4 1020.4 0.0
14/10:00pm 22.6 18.8 16.6 69 3.6 SE 32 35 17 19 1020.4 1020.4 0.0
14/09:30pm 22.6 19.4 16.2 67 3.9 SE 28 33 15 18 1020.4 1020.4 0.0
14/09:00pm 22.6 19.6 15.9 66 4.0 ESE 26 33 14 18 1020.4 1020.4 0.0
14/08:30pm 22.9 20.2 15.7 64 4.3 ESE 24 30 13 16 1020.1 1020.1 0.0
14/08:00pm 23.0 20.0 14.8 60 4.8 SE 24 30 13 16 1019.9 1019.9 0.0
14/07:30pm 23.0 19.7 16.1 65 4.2 SE 28 33 15 18 1019.9 1019.9 0.0
14/07:00pm 23.3 20.1 16.4 65 4.2 SE 28 32 15 17 1019.5 1019.5 0.0
14/06:30pm 23.1 20.5 16.9 68 3.8 SE 26 30 14 16 1019.2 1019.2 0.0
14/06:00pm 23.3 20.4 16.1 64 4.4 SE 26 32 14 17 1018.9 1018.9 0.0
14/05:30pm 23.7 20.8 16.0 62 4.7 SE 26 30 14 16 1018.7 1018.7 0.0
14/05:00pm 24.3 22.4 16.6 62 4.7 SE 22 28 12 15 1018.5 1018.5 0.0
14/04:30pm 24.8 22.8 17.3 63 4.7 SE 24 30 13 16 1018.4 1018.4 0.0
14/04:00pm 25.8 23.4 16.4 56 5.8 ESE 24 30 13 16 1018.6 1018.6 0.0
14/03:30pm 26.1 23.7 16.4 55 6.0 SE 24 28 13 15 1018.5 1018.5 0.0
14/03:00pm 25.7 23.6 16.3 56 5.8 SE 22 26 12 14 1018.5 1018.5 0.0
14/02:30pm 26.1 24.2 16.6 55 5.9 SE 22 24 12 13 1018.7 1018.7 0.0
14/02:00pm 26.1 24.2 16.6 55 5.9 SE 22 28 12 15 1019.0 1019.0 0.0
14/01:30pm 27.2 25.1 16.2 51 6.8 SE 22 26 12 14 1019.4 1019.4 0.0
14/01:00pm 27.0 24.9 16.3 52 6.6 SE 22 26 12 14 1019.8 1019.8 0.0
14/12:30pm 27.5 26.0 17.7 55 6.2 SE 22 26 12 14 1020.3 1020.3 0.0
14/12:00pm 26.6 25.0 17.4 57 5.7 SE 22 24 12 13 1020.7 1020.7 0.0
14/11:30am 24.5 22.6 16.7 61 4.8 SE 22 26 12 14 1021.2 1021.2 0.0
14/11:00am 24.8 23.3 17.8 65 4.4 SE 22 26 12 14 1021.5 1021.5 0.0
14/10:30am 24.1 21.4 16.6 63 4.6 SE 26 28 14 15 1021.7 1021.7 0.0
14/10:00am 23.3 20.4 16.1 64 4.4 SE 26 30 14 16 1021.6 1021.6 0.0
14/09:30am 23.1 20.4 16.6 67 4.0 SE 26 30 14 16 1021.7 1021.7 0.0
14/09:00am 22.8 20.3 17.0 70 3.6 SE 26 30 14 16 1021.5 1021.5 0.0
14/08:30am 22.5 20.0 17.0 71 3.4 SE 26 30 14 16 1021.3 1021.3 0.0
14/08:00am 22.3 19.8 17.0 72 3.2 SE 26 30 14 16 1021.0 1021.0 0.0
14/07:30am 22.0 19.4 16.9 73 3.1 SSE 26 32 14 17 1020.8 1020.8 0.0
14/07:00am 21.8 19.3 17.0 74 2.9 SSE 26 30 14 16 1020.4 1020.4 0.0
14/06:30am 21.7 19.5 16.9 74 2.9 SE 24 28 13 15 1020.0 1020.0 0.0
14/06:00am 21.6 18.4 16.3 72 3.2 SE 28 30 15 16 1019.7 1019.7 0.0
14/05:30am 21.6 18.5 16.6 73 3.0 SE 28 33 15 18 1019.5 1019.5 0.0
14/05:00am 21.5 18.5 15.8 70 3.4 SE 26 30 14 16 1019.3 1019.3 0.0
14/04:30am 21.4 18.1 16.1 72 3.2 SE 28 32 15 17 1019.1 1019.1 0.0
14/04:00am 21.3 18.1 15.4 69 3.5 SE 26 30 14 16 1019.1 1019.1 0.0
14/03:30am 21.3 18.3 14.9 67 3.8 SE 24 30 13 16 1019.3 1019.3 0.0
14/03:00am 21.4 18.2 14.3 64 4.1 SE 24 30 13 16 1019.3 1019.3 0.0
14/02:30am 21.5 18.8 14.6 65 4.0 SE 22 26 12 14 1019.6 1019.6 0.0
14/02:00am 21.8 18.5 13.9 61 4.6 SE 24 28 13 15 1019.8 1019.8 0.0
14/01:30am 21.8 19.7 15.2 66 3.9 SSE 20 24 11 13 1019.9 1019.9 0.0
14/01:00am 21.7 19.4 14.6 64 4.2 SE 20 24 11 13 1020.2 1020.2 0.0
14/12:30am 21.5 19.9 16.0 71 3.3 SSE 19 22 10 12 1020.3 1020.3 0.0
14/12:00am 21.5 20.3 16.0 71 3.3 SSE 17 20 9 11 1020.4 1020.4 0.0
 
Date/Time
EST
Temp
°C
App
Temp
°C
Dew
Point
°C
Rel
Hum
%
Delta-T
°C
Wind Press
QNH
hPa
Press
MSL
hPa
Rain since
9am
mm
Dir  Spd
km/h
Gust
km/h
Spd
kts
Gust
kts
13/11:30pm 21.2 19.1 14.6 66 3.9 S 19 22 10 12 1020.6 1020.6 0.0
13/11:00pm 22.0 20.0 15.4 66 3.9 SSE 20 24 11 13 1020.8 1020.8 0.0
13/10:30pm 22.0 19.7 15.6 67 3.8 SSE 22 26 12 14 1020.9 1020.9 0.0
13/10:00pm 22.2 19.7 16.2 69 3.6 SSE 24 30 13 16 1020.9 1020.9 0.0
13/09:30pm 22.6 19.1 16.6 69 3.7 SSE 30 35 16 19 1021.0 1021.0 0.0
13/09:00pm 22.4 17.4 16.0 67 3.8 SE 37 41 20 22 1021.0 1021.0 0.0
13/08:30pm 22.7 18.1 16.0 66 4.0 SE 35 41 19 22 1020.8 1020.8 0.0
13/08:00pm 22.5 18.4 16.5 69 3.6 ESE 33 43 18 23 1020.6 1020.6 0.0
13/07:30pm 22.5 18.0 16.3 68 3.8 ESE 35 43 19 23 1020.2 1020.2 0.0
13/07:00pm 22.7 17.8 16.3 67 3.9 ESE 37 44 20 24 1020.0 1020.0 0.0
13/06:30pm 22.6 17.6 16.2 67 3.9 ESE 37 46 20 25 1019.7 1019.7 0.0
13/06:00pm 22.7 17.6 15.8 65 4.1 ESE 37 44 20 24 1019.2 1019.2 0.0
13/05:30pm 23.1 18.4 15.9 64 4.3 ESE 35 44 19 24 1019.0 1019.0 0.0
13/05:00pm 23.7 19.1 15.2 59 5.1 ESE 33 41 18 22 1018.7 1018.7 0.0
13/04:30pm 24.1 19.7 15.6 59 5.1 ESE 33 41 18 22 1018.6 1018.6 0.0
13/04:00pm 24.7 19.8 15.3 56 5.6 ESE 35 46 19 25 1018.6 1018.6 0.0
13/03:30pm 25.4 20.5 15.4 54 6.0 ESE 35 43 19 23 1018.8 1018.8 0.0
13/03:00pm 25.9 21.2 15.9 54 6.1 ESE 35 44 19 24 1018.9 1018.9 0.0
13/02:30pm 26.1 21.1 16.1 54 6.1 SE 37 41 20 22 1019.1 1019.1 0.0
13/02:00pm 27.0 22.4 16.0 51 6.7 SE 35 41 19 22 1019.3 1019.3 0.0
13/01:30pm 26.8 22.2 16.1 52 6.6 SE 35 41 19 22 1019.7 1019.7 0.0
13/01:00pm 27.2 22.7 16.5 52 6.6 SE 35 41 19 22 1020.1 1020.1 0.0
13/12:30pm 25.5 21.8 17.4 61 5.1 SE 33 39 18 21 1020.5 1020.5 0.0
13/12:00pm 25.7 21.2 16.5 56 5.6 SE 35 43 19 23 1021.1 1021.1 0.0
13/11:30am 26.5 22.5 17.6 58 5.6 SE 35 41 19 22 1021.3 1021.3 0.0
13/11:00am 26.1 21.8 15.8 53 6.3 ESE 33 41 18 22 1021.6 1021.6 0.0
13/10:30am 25.3 21.8 17.5 62 4.9 SE 32 37 17 20 1021.9 1021.9 0.0
13/10:00am 23.8 19.5 16.8 65 4.3 SE 35 41 19 22 1022.1 1022.1 0.0
13/09:30am 24.1 18.9 14.5 55 5.7 ESE 35 44 19 24 1021.9 1021.9 0.0
13/09:00am 23.8 18.4 15.0 57 5.2 ESE 37 44 20 24 1021.7 1021.7 0.0
13/08:30am 23.4 17.9 15.7 62 4.6 SE 39 43 21 23 1021.6 1021.6 0.0
13/08:00am 23.4 18.5 16.4 64 4.3 ESE 37 44 20 24 1021.3 1021.3 0.0
13/07:30am 22.8 18.5 16.8 69 3.7 ESE 35 43 19 23 1020.9 1020.9 0.0
13/07:00am 22.4 17.8 16.2 68 3.7 ESE 35 43 19 23 1020.4 1020.4 0.0
13/06:30am 22.3 17.6 15.9 67 3.9 ESE 35 43 19 23 1020.1 1020.1 0.0
13/06:00am 22.3 18.2 15.9 67 3.8 ESE 32 43 17 23 1019.8 1019.8 0.0
13/05:30am 22.2 18.0 15.8 67 3.8 ESE 32 41 17 22 1019.6 1019.6 0.0
13/05:00am 22.3 18.4 15.6 66 4.0 ESE 30 39 16 21 1019.5 1019.5 0.0
13/04:30am 22.1 17.9 16.1 69 3.6 ESE 33 41 18 22 1019.5 1019.5 0.0
13/04:00am 22.2 18.9 17.1 73 3.1 ESE 30 37 16 20 1019.2 1019.2 0.0
13/03:30am 22.1 18.6 16.6 71 3.3 ESE 30 39 16 21 1019.2 1019.2 0.0
13/03:00am 21.9 18.4 16.6 72 3.2 ESE 30 39 16 21 1019.2 1019.2 0.0
13/02:30am 21.9 18.1 16.8 73 3.1 ESE 32 37 17 20 1019.5 1019.5 0.0
13/02:00am 21.8 17.6 16.3 71 3.3 ESE 33 39 18 21 1019.7 1019.7 0.0
13/01:30am 21.9 18.1 16.8 73 3.1 ESE 32 39 17 21 1019.9 1019.9 0.0
13/01:00am 22.0 18.7 18.0 78 2.5 ESE 32 41 17 22 1020.2 1020.2 0.0
13/12:30am 22.2 18.6 17.6 75 2.8 ESE 33 41 18 22 1020.5 1020.5 0.0
13/12:00am 21.9 18.5 17.7 77 2.6 SE 32 37 17 20 1020.7 1020.7 0.0
 
Date/Time
EST
Temp
°C
App
Temp
°C
Dew
Point
°C
Rel
Hum
%
Delta-T
°C
Wind Press
QNH
hPa
Press
MSL
hPa
Rain since
9am
mm
Dir  Spd
km/h
Gust
km/h
Spd
kts
Gust
kts
12/11:30pm 21.9 19.1 18.1 79 2.4 SE 30 33 16 18 1021.1 1021.1 0.0
12/11:00pm 20.7 18.4 17.5 82 2.0 SE 26 39 14 21 1021.5 1021.5 0.0
12/10:30pm 22.4 19.7 17.5 74 3.0 SSE 28 35 15 19 1021.4 1021.4 0.0
12/10:00pm 22.3 18.8 17.9 76 2.7 SSE 33 37 18 20 1021.6 1021.6 0.0
12/09:30pm 22.5 18.9 17.6 74 3.0 SE 33 39 18 21 1021.7 1021.7 0.0
12/09:00pm 22.7 19.3 17.8 74 3.0 SSE 32 39 17 21 1021.6 1021.6 0.0
12/08:30pm 22.6 19.1 17.9 75 2.9 SE 33 39 18 21 1021.5 1021.5 0.0
12/08:00pm 22.4 19.2 18.2 77 2.6 SE 32 35 17 19 1021.4 1021.4 0.0
12/07:30pm 22.2 18.8 17.6 75 2.8 SE 32 35 17 19 1021.3 1021.3 0.0
12/07:00pm 22.7 18.5 18.0 75 2.9 SE 37 44 20 24 1021.0 1021.0 0.0
12/06:30pm 22.5 17.8 17.8 75 2.9 SE 39 43 21 23 1020.6 1020.6 0.0
12/06:00pm 22.2 18.4 18.0 77 2.6 SE 35 41 19 22 1020.5 1020.5 0.0
12/05:30pm 22.8 18.1 17.7 73 3.2 SE 39 44 21 24 1020.1 1020.1 0.0
12/05:00pm 23.0 18.3 17.7 72 3.3 SE 39 43 21 23 1020.0 1020.0 0.0
12/04:30pm 23.2 18.4 16.7 67 4.0 ESE 37 44 20 24 1019.8 1019.8 0.0

Other formats

Comma delimited format used in spreadsheet applications
http://www.bom.gov.au/fwo/IDQ60801/IDQ60801.94285.axf

JavaScript Object Notation format (JSON) in row-major order
http://www.bom.gov.au/fwo/IDQ60801/IDQ60801.94285.json

Data quality

Most of these data are generated automatically and are frequently updated. Quality checks on data are not normally performed. It is possible for incorrect values to appear. Refer to information at About Latest Weather Observations and please check the disclaimer before using these data.